sensor_id;sensor_type;location;lat;lon;timestamp;P1;durP1;ratioP1;P2;durP2;ratioP2
24713;SDS011;12820;51.580;5.010;2023-11-19T00:04:37;46.30;;;19.95;;
24713;SDS011;12820;51.580;5.010;2023-11-19T00:09:43;50.22;;;20.10;;
24713;SDS011;12820;51.580;5.010;2023-11-19T00:14:45;50.95;;;19.52;;
24713;SDS011;12820;51.580;5.010;2023-11-19T00:19:48;40.35;;;17.55;;
24713;SDS011;12820;51.580;5.010;2023-11-19T00:24:53;35.85;;;17.15;;
24713;SDS011;12820;51.580;5.010;2023-11-19T00:29:55;41.17;;;16.42;;
24713;SDS011;12820;51.580;5.010;2023-11-19T00:34:57;39.70;;;15.60;;
24713;SDS011;12820;51.580;5.010;2023-11-19T00:39:59;44.00;;;14.15;;
24713;SDS011;12820;51.580;5.010;2023-11-19T00:45:02;40.42;;;13.07;;
24713;SDS011;12820;51.580;5.010;2023-11-19T00:50:05;52.15;;;13.32;;
24713;SDS011;12820;51.580;5.010;2023-11-19T00:55:08;38.35;;;12.40;;
24713;SDS011;12820;51.580;5.010;2023-11-19T01:00:10;42.40;;;11.88;;
24713;SDS011;12820;51.580;5.010;2023-11-19T01:05:21;42.70;;;12.75;;
24713;SDS011;12820;51.580;5.010;2023-11-19T01:10:25;41.03;;;10.82;;
24713;SDS011;12820;51.580;5.010;2023-11-19T01:15:28;45.53;;;10.80;;
24713;SDS011;12820;51.580;5.010;2023-11-19T01:20:30;32.63;;;9.18;;
24713;SDS011;12820;51.580;5.010;2023-11-19T01:25:32;36.03;;;8.45;;
24713;SDS011;12820;51.580;5.010;2023-11-19T01:30:34;40.05;;;10.07;;
24713;SDS011;12820;51.580;5.010;2023-11-19T01:35:36;37.20;;;8.48;;
24713;SDS011;12820;51.580;5.010;2023-11-19T01:40:38;35.22;;;8.55;;
24713;SDS011;12820;51.580;5.010;2023-11-19T01:45:40;43.40;;;8.57;;
24713;SDS011;12820;51.580;5.010;2023-11-19T01:50:43;52.47;;;7.72;;
24713;SDS011;12820;51.580;5.010;2023-11-19T01:55:46;41.13;;;7.30;;
24713;SDS011;12820;51.580;5.010;2023-11-19T02:00:49;39.80;;;6.95;;
24713;SDS011;12820;51.580;5.010;2023-11-19T02:05:51;40.70;;;6.75;;
24713;SDS011;12820;51.580;5.010;2023-11-19T02:10:55;46.25;;;7.32;;
24713;SDS011;12820;51.580;5.010;2023-11-19T02:16:00;41.92;;;7.10;;
24713;SDS011;12820;51.580;5.010;2023-11-19T02:21:04;36.75;;;6.82;;
24713;SDS011;12820;51.580;5.010;2023-11-19T02:31:36;51.60;;;9.32;;
24713;SDS011;12820;51.580;5.010;2023-11-19T02:36:39;53.75;;;7.80;;
24713;SDS011;12820;51.580;5.010;2023-11-19T02:41:43;45.90;;;7.72;;
24713;SDS011;12820;51.580;5.010;2023-11-19T02:46:45;41.13;;;7.45;;
24713;SDS011;12820;51.580;5.010;2023-11-19T02:51:50;49.45;;;6.95;;
24713;SDS011;12820;51.580;5.010;2023-11-19T02:56:52;52.63;;;6.47;;
24713;SDS011;12820;51.580;5.010;2023-11-19T03:01:57;41.63;;;6.80;;
24713;SDS011;12820;51.580;5.010;2023-11-19T03:07:01;49.58;;;6.57;;
24713;SDS011;12820;51.580;5.010;2023-11-19T03:12:05;46.03;;;7.18;;
24713;SDS011;12820;51.580;5.010;2023-11-19T03:17:08;43.53;;;5.90;;
24713;SDS011;12820;51.580;5.010;2023-11-19T03:22:12;40.45;;;6.43;;
24713;SDS011;12820;51.580;5.010;2023-11-19T03:27:14;45.28;;;5.97;;
24713;SDS011;12820;51.580;5.010;2023-11-19T03:32:18;51.90;;;6.93;;
24713;SDS011;12820;51.580;5.010;2023-11-19T03:37:21;53.45;;;6.28;;
24713;SDS011;12820;51.580;5.010;2023-11-19T03:42:23;69.25;;;7.88;;
24713;SDS011;12820;51.580;5.010;2023-11-19T03:47:26;40.15;;;5.18;;
24713;SDS011;12820;51.580;5.010;2023-11-19T03:52:28;49.60;;;8.10;;
24713;SDS011;12820;51.580;5.010;2023-11-19T03:57:45;54.67;;;7.97;;
24713;SDS011;12820;51.580;5.010;2023-11-19T04:02:48;51.33;;;6.57;;
24713;SDS011;12820;51.580;5.010;2023-11-19T04:07:51;58.53;;;8.48;;
24713;SDS011;12820;51.580;5.010;2023-11-19T04:12:53;57.75;;;7.07;;
24713;SDS011;12820;51.580;5.010;2023-11-19T04:17:55;49.45;;;6.28;;
24713;SDS011;12820;51.580;5.010;2023-11-19T04:22:57;50.90;;;6.43;;
24713;SDS011;12820;51.580;5.010;2023-11-19T04:28:02;61.83;;;7.80;;
24713;SDS011;12820;51.580;5.010;2023-11-19T04:33:04;54.72;;;6.95;;
24713;SDS011;12820;51.580;5.010;2023-11-19T04:38:07;58.13;;;7.72;;
24713;SDS011;12820;51.580;5.010;2023-11-19T04:43:09;52.95;;;7.40;;
24713;SDS011;12820;51.580;5.010;2023-11-19T04:48:12;60.20;;;7.32;;
24713;SDS011;12820;51.580;5.010;2023-11-19T04:53:14;56.05;;;7.63;;
24713;SDS011;12820;51.580;5.010;2023-11-19T04:58:17;50.50;;;7.13;;
24713;SDS011;12820;51.580;5.010;2023-11-19T05:03:19;48.15;;;6.70;;
24713;SDS011;12820;51.580;5.010;2023-11-19T05:08:21;50.72;;;7.35;;
24713;SDS011;12820;51.580;5.010;2023-11-19T05:13:24;48.25;;;6.47;;
24713;SDS011;12820;51.580;5.010;2023-11-19T05:18:26;54.15;;;7.55;;
24713;SDS011;12820;51.580;5.010;2023-11-19T05:23:28;59.67;;;7.28;;
24713;SDS011;12820;51.580;5.010;2023-11-19T05:28:30;52.90;;;7.60;;
24713;SDS011;12820;51.580;5.010;2023-11-19T05:33:33;52.67;;;7.07;;
24713;SDS011;12820;51.580;5.010;2023-11-19T05:38:35;51.63;;;7.53;;
24713;SDS011;12820;51.580;5.010;2023-11-19T05:43:38;38.83;;;7.03;;
24713;SDS011;12820;51.580;5.010;2023-11-19T05:48:42;51.75;;;6.22;;
24713;SDS011;12820;51.580;5.010;2023-11-19T05:53:44;47.45;;;6.18;;
24713;SDS011;12820;51.580;5.010;2023-11-19T05:58:52;54.90;;;6.45;;
24713;SDS011;12820;51.580;5.010;2023-11-19T06:03:54;49.63;;;6.95;;
24713;SDS011;12820;51.580;5.010;2023-11-19T06:08:56;53.97;;;7.60;;
24713;SDS011;12820;51.580;5.010;2023-11-19T06:13:58;58.05;;;7.70;;
24713;SDS011;12820;51.580;5.010;2023-11-19T06:19:01;50.15;;;6.68;;
24713;SDS011;12820;51.580;5.010;2023-11-19T06:24:03;55.20;;;7.22;;
24713;SDS011;12820;51.580;5.010;2023-11-19T06:29:05;52.72;;;7.97;;
24713;SDS011;12820;51.580;5.010;2023-11-19T06:34:07;55.05;;;6.53;;
24713;SDS011;12820;51.580;5.010;2023-11-19T06:39:10;50.33;;;7.72;;
24713;SDS011;12820;51.580;5.010;2023-11-19T06:44:15;59.20;;;7.35;;
24713;SDS011;12820;51.580;5.010;2023-11-19T06:49:17;49.55;;;6.78;;
24713;SDS011;12820;51.580;5.010;2023-11-19T06:54:20;48.55;;;6.38;;
24713;SDS011;12820;51.580;5.010;2023-11-19T06:59:23;67.28;;;6.65;;
24713;SDS011;12820;51.580;5.010;2023-11-19T07:04:25;46.78;;;5.82;;
24713;SDS011;12820;51.580;5.010;2023-11-19T07:09:27;50.45;;;6.28;;
24713;SDS011;12820;51.580;5.010;2023-11-19T07:14:29;52.30;;;7.07;;
24713;SDS011;12820;51.580;5.010;2023-11-19T07:19:31;36.05;;;5.75;;
24713;SDS011;12820;51.580;5.010;2023-11-19T07:24:33;53.88;;;7.30;;
24713;SDS011;12820;51.580;5.010;2023-11-19T07:29:36;53.17;;;7.43;;
24713;SDS011;12820;51.580;5.010;2023-11-19T07:34:40;47.75;;;6.30;;
24713;SDS011;12820;51.580;5.010;2023-11-19T07:39:42;47.33;;;6.50;;
24713;SDS011;12820;51.580;5.010;2023-11-19T07:44:44;52.45;;;7.65;;
24713;SDS011;12820;51.580;5.010;2023-11-19T07:49:46;55.85;;;6.38;;
24713;SDS011;12820;51.580;5.010;2023-11-19T07:54:48;41.67;;;5.50;;
24713;SDS011;12820;51.580;5.010;2023-11-19T07:59:51;46.42;;;5.40;;
24713;SDS011;12820;51.580;5.010;2023-11-19T08:04:53;50.35;;;6.75;;
24713;SDS011;12820;51.580;5.010;2023-11-19T08:09:57;47.92;;;6.30;;
24713;SDS011;12820;51.580;5.010;2023-11-19T08:14:59;49.28;;;6.88;;
24713;SDS011;12820;51.580;5.010;2023-11-19T08:20:01;63.15;;;7.22;;
24713;SDS011;12820;51.580;5.010;2023-11-19T08:25:05;59.97;;;6.75;;
24713;SDS011;12820;51.580;5.010;2023-11-19T08:30:07;46.05;;;5.93;;
24713;SDS011;12820;51.580;5.010;2023-11-19T08:35:10;51.75;;;6.80;;
24713;SDS011;12820;51.580;5.010;2023-11-19T08:40:12;48.25;;;6.78;;
24713;SDS011;12820;51.580;5.010;2023-11-19T08:45:17;53.95;;;7.40;;
24713;SDS011;12820;51.580;5.010;2023-11-19T08:50:19;49.72;;;7.30;;
24713;SDS011;12820;51.580;5.010;2023-11-19T08:55:21;52.92;;;6.93;;
24713;SDS011;12820;51.580;5.010;2023-11-19T09:00:23;46.65;;;6.18;;
24713;SDS011;12820;51.580;5.010;2023-11-19T09:05:25;44.17;;;6.13;;
24713;SDS011;12820;51.580;5.010;2023-11-19T09:10:28;49.92;;;6.20;;
24713;SDS011;12820;51.580;5.010;2023-11-19T09:15:31;45.25;;;6.72;;
24713;SDS011;12820;51.580;5.010;2023-11-19T09:20:33;46.97;;;6.63;;
24713;SDS011;12820;51.580;5.010;2023-11-19T09:25:40;56.83;;;7.68;;
24713;SDS011;12820;51.580;5.010;2023-11-19T09:30:46;47.83;;;6.10;;
24713;SDS011;12820;51.580;5.010;2023-11-19T09:35:48;53.78;;;6.55;;
24713;SDS011;12820;51.580;5.010;2023-11-19T09:40:51;48.15;;;6.45;;
24713;SDS011;12820;51.580;5.010;2023-11-19T09:45:53;39.58;;;6.13;;
24713;SDS011;12820;51.580;5.010;2023-11-19T09:50:56;44.47;;;6.75;;
24713;SDS011;12820;51.580;5.010;2023-11-19T09:56:00;44.95;;;6.65;;
24713;SDS011;12820;51.580;5.010;2023-11-19T10:01:04;38.25;;;6.05;;
24713;SDS011;12820;51.580;5.010;2023-11-19T10:06:14;40.90;;;6.30;;
24713;SDS011;12820;51.580;5.010;2023-11-19T10:11:17;46.92;;;7.43;;
24713;SDS011;12820;51.580;5.010;2023-11-19T10:16:19;46.40;;;6.25;;
24713;SDS011;12820;51.580;5.010;2023-11-19T10:21:21;46.50;;;5.90;;
24713;SDS011;12820;51.580;5.010;2023-11-19T10:26:23;39.03;;;7.25;;
24713;SDS011;12820;51.580;5.010;2023-11-19T10:31:26;41.78;;;6.65;;
24713;SDS011;12820;51.580;5.010;2023-11-19T10:36:38;39.03;;;6.18;;
24713;SDS011;12820;51.580;5.010;2023-11-19T10:41:44;44.33;;;6.57;;
24713;SDS011;12820;51.580;5.010;2023-11-19T10:46:47;37.35;;;6.20;;
24713;SDS011;12820;51.580;5.010;2023-11-19T10:51:50;45.75;;;7.25;;
24713;SDS011;12820;51.580;5.010;2023-11-19T10:56:54;40.10;;;6.40;;
24713;SDS011;12820;51.580;5.010;2023-11-19T11:02:00;37.47;;;5.65;;
24713;SDS011;12820;51.580;5.010;2023-11-19T11:07:07;38.78;;;5.35;;
24713;SDS011;12820;51.580;5.010;2023-11-19T11:12:11;35.78;;;6.10;;
24713;SDS011;12820;51.580;5.010;2023-11-19T11:17:14;31.20;;;4.93;;
24713;SDS011;12820;51.580;5.010;2023-11-19T11:22:19;43.67;;;5.57;;
24713;SDS011;12820;51.580;5.010;2023-11-19T11:37:44;29.05;;;5.35;;
24713;SDS011;12820;51.580;5.010;2023-11-19T11:42:49;36.83;;;5.60;;
24713;SDS011;12820;51.580;5.010;2023-11-19T11:57:57;31.73;;;5.47;;
24713;SDS011;12820;51.580;5.010;2023-11-19T12:03:01;31.92;;;5.32;;
24713;SDS011;12820;51.580;5.010;2023-11-19T12:08:05;31.42;;;4.57;;
24713;SDS011;12820;51.580;5.010;2023-11-19T12:13:09;31.10;;;5.38;;
24713;SDS011;12820;51.580;5.010;2023-11-19T12:18:11;32.90;;;6.00;;
24713;SDS011;12820;51.580;5.010;2023-11-19T12:23:13;38.80;;;5.75;;
24713;SDS011;12820;51.580;5.010;2023-11-19T12:28:16;35.90;;;5.32;;
24713;SDS011;12820;51.580;5.010;2023-11-19T12:33:19;32.13;;;5.15;;
24713;SDS011;12820;51.580;5.010;2023-11-19T12:38:22;42.05;;;5.70;;
24713;SDS011;12820;51.580;5.010;2023-11-19T12:43:25;35.40;;;5.65;;
24713;SDS011;12820;51.580;5.010;2023-11-19T12:48:27;34.92;;;5.93;;
24713;SDS011;12820;51.580;5.010;2023-11-19T12:53:29;32.20;;;5.57;;
24713;SDS011;12820;51.580;5.010;2023-11-19T12:58:50;27.95;;;5.07;;
24713;SDS011;12820;51.580;5.010;2023-11-19T13:03:52;35.90;;;6.07;;
24713;SDS011;12820;51.580;5.010;2023-11-19T13:08:54;28.50;;;4.60;;
24713;SDS011;12820;51.580;5.010;2023-11-19T13:13:58;33.60;;;5.00;;
24713;SDS011;12820;51.580;5.010;2023-11-19T13:19:01;29.92;;;4.97;;
24713;SDS011;12820;51.580;5.010;2023-11-19T13:24:05;26.70;;;4.40;;
24713;SDS011;12820;51.580;5.010;2023-11-19T13:29:08;27.70;;;5.20;;
24713;SDS011;12820;51.580;5.010;2023-11-19T13:34:12;27.70;;;4.53;;
24713;SDS011;12820;51.580;5.010;2023-11-19T13:39:14;28.35;;;6.00;;
24713;SDS011;12820;51.580;5.010;2023-11-19T13:44:24;32.33;;;5.47;;
24713;SDS011;12820;51.580;5.010;2023-11-19T13:49:26;27.15;;;4.75;;
24713;SDS011;12820;51.580;5.010;2023-11-19T13:54:30;27.30;;;4.82;;
24713;SDS011;12820;51.580;5.010;2023-11-19T13:59:32;28.95;;;5.03;;
24713;SDS011;12820;51.580;5.010;2023-11-19T14:04:35;33.22;;;4.47;;
24713;SDS011;12820;51.580;5.010;2023-11-19T14:09:37;25.20;;;4.30;;
24713;SDS011;12820;51.580;5.010;2023-11-19T14:14:39;27.08;;;4.70;;
24713;SDS011;12820;51.580;5.010;2023-11-19T14:19:42;32.85;;;5.25;;
24713;SDS011;12820;51.580;5.010;2023-11-19T14:24:44;28.27;;;5.03;;
24713;SDS011;12820;51.580;5.010;2023-11-19T14:29:46;22.77;;;4.55;;
24713;SDS011;12820;51.580;5.010;2023-11-19T14:34:49;32.00;;;4.55;;
24713;SDS011;12820;51.580;5.010;2023-11-19T14:39:51;27.20;;;4.40;;
24713;SDS011;12820;51.580;5.010;2023-11-19T14:44:53;27.55;;;4.43;;
24713;SDS011;12820;51.580;5.010;2023-11-19T14:49:56;27.30;;;4.60;;
24713;SDS011;12820;51.580;5.010;2023-11-19T14:54:58;29.77;;;5.13;;
24713;SDS011;12820;51.580;5.010;2023-11-19T15:00:00;34.15;;;4.63;;
24713;SDS011;12820;51.580;5.010;2023-11-19T15:05:03;26.98;;;4.55;;
24713;SDS011;12820;51.580;5.010;2023-11-19T15:10:06;28.02;;;4.75;;
24713;SDS011;12820;51.580;5.010;2023-11-19T15:15:12;22.02;;;3.83;;
24713;SDS011;12820;51.580;5.010;2023-11-19T15:20:36;27.25;;;4.32;;
24713;SDS011;12820;51.580;5.010;2023-11-19T15:25:38;25.88;;;4.55;;
24713;SDS011;12820;51.580;5.010;2023-11-19T15:30:40;25.60;;;5.07;;
24713;SDS011;12820;51.580;5.010;2023-11-19T15:35:43;32.80;;;5.53;;
24713;SDS011;12820;51.580;5.010;2023-11-19T15:40:45;28.52;;;4.80;;
24713;SDS011;12820;51.580;5.010;2023-11-19T15:45:47;30.55;;;4.60;;
24713;SDS011;12820;51.580;5.010;2023-11-19T15:50:49;25.98;;;4.28;;
24713;SDS011;12820;51.580;5.010;2023-11-19T15:55:52;31.80;;;4.85;;
24713;SDS011;12820;51.580;5.010;2023-11-19T16:00:56;33.38;;;4.53;;
24713;SDS011;12820;51.580;5.010;2023-11-19T16:05:59;26.55;;;5.00;;
24713;SDS011;12820;51.580;5.010;2023-11-19T16:11:10;26.80;;;4.13;;
24713;SDS011;12820;51.580;5.010;2023-11-19T16:16:15;21.33;;;4.50;;
24713;SDS011;12820;51.580;5.010;2023-11-19T16:21:17;31.33;;;5.03;;
24713;SDS011;12820;51.580;5.010;2023-11-19T16:26:19;26.00;;;4.53;;
24713;SDS011;12820;51.580;5.010;2023-11-19T16:31:22;30.45;;;5.30;;
24713;SDS011;12820;51.580;5.010;2023-11-19T16:36:24;31.73;;;5.35;;
24713;SDS011;12820;51.580;5.010;2023-11-19T16:41:27;31.05;;;4.68;;
24713;SDS011;12820;51.580;5.010;2023-11-19T16:46:42;23.90;;;4.20;;
24713;SDS011;12820;51.580;5.010;2023-11-19T16:51:45;23.60;;;4.78;;
24713;SDS011;12820;51.580;5.010;2023-11-19T16:57:15;28.88;;;6.00;;
24713;SDS011;12820;51.580;5.010;2023-11-19T17:02:19;26.27;;;5.68;;
24713;SDS011;12820;51.580;5.010;2023-11-19T17:07:21;29.75;;;5.90;;
24713;SDS011;12820;51.580;5.010;2023-11-19T17:12:23;30.70;;;5.50;;
24713;SDS011;12820;51.580;5.010;2023-11-19T17:17:27;25.50;;;5.03;;
24713;SDS011;12820;51.580;5.010;2023-11-19T17:22:36;31.10;;;5.47;;
24713;SDS011;12820;51.580;5.010;2023-11-19T17:27:40;32.70;;;5.22;;
24713;SDS011;12820;51.580;5.010;2023-11-19T17:32:42;30.85;;;4.85;;
24713;SDS011;12820;51.580;5.010;2023-11-19T17:37:45;33.03;;;4.80;;
24713;SDS011;12820;51.580;5.010;2023-11-19T17:42:47;32.45;;;5.22;;
24713;SDS011;12820;51.580;5.010;2023-11-19T17:47:56;41.35;;;6.40;;
24713;SDS011;12820;51.580;5.010;2023-11-19T17:52:59;30.73;;;5.72;;
24713;SDS011;12820;51.580;5.010;2023-11-19T17:58:01;30.20;;;5.72;;
24713;SDS011;12820;51.580;5.010;2023-11-19T18:03:04;34.25;;;5.00;;
24713;SDS011;12820;51.580;5.010;2023-11-19T18:08:07;27.02;;;5.45;;
24713;SDS011;12820;51.580;5.010;2023-11-19T18:13:11;28.60;;;5.93;;
24713;SDS011;12820;51.580;5.010;2023-11-19T18:18:13;32.45;;;6.22;;
24713;SDS011;12820;51.580;5.010;2023-11-19T18:23:16;27.52;;;5.43;;
24713;SDS011;12820;51.580;5.010;2023-11-19T18:28:18;25.70;;;6.15;;
24713;SDS011;12820;51.580;5.010;2023-11-19T18:33:21;26.95;;;6.38;;
24713;SDS011;12820;51.580;5.010;2023-11-19T18:38:23;28.75;;;6.55;;
24713;SDS011;12820;51.580;5.010;2023-11-19T18:43:44;29.08;;;7.22;;
24713;SDS011;12820;51.580;5.010;2023-11-19T18:48:46;27.55;;;6.47;;
24713;SDS011;12820;51.580;5.010;2023-11-19T18:53:48;31.20;;;9.20;;
24713;SDS011;12820;51.580;5.010;2023-11-19T18:58:50;24.50;;;6.60;;
24713;SDS011;12820;51.580;5.010;2023-11-19T19:03:52;24.58;;;7.05;;
24713;SDS011;12820;51.580;5.010;2023-11-19T19:08:55;24.75;;;7.78;;
24713;SDS011;12820;51.580;5.010;2023-11-19T19:13:58;26.60;;;7.32;;
24713;SDS011;12820;51.580;5.010;2023-11-19T19:19:05;27.83;;;7.80;;
24713;SDS011;12820;51.580;5.010;2023-11-19T19:24:07;29.13;;;6.60;;
24713;SDS011;12820;51.580;5.010;2023-11-19T19:29:11;28.05;;;7.90;;
24713;SDS011;12820;51.580;5.010;2023-11-19T19:34:14;27.88;;;7.10;;
24713;SDS011;12820;51.580;5.010;2023-11-19T19:39:16;24.55;;;7.43;;
24713;SDS011;12820;51.580;5.010;2023-11-19T19:44:18;25.27;;;7.55;;
24713;SDS011;12820;51.580;5.010;2023-11-19T19:49:21;22.42;;;6.05;;
24713;SDS011;12820;51.580;5.010;2023-11-19T19:54:24;32.45;;;7.13;;
24713;SDS011;12820;51.580;5.010;2023-11-19T19:59:26;28.60;;;6.78;;
24713;SDS011;12820;51.580;5.010;2023-11-19T20:04:28;22.73;;;5.57;;
24713;SDS011;12820;51.580;5.010;2023-11-19T20:09:32;28.25;;;7.28;;
24713;SDS011;12820;51.580;5.010;2023-11-19T20:14:36;31.77;;;6.85;;
24713;SDS011;12820;51.580;5.010;2023-11-19T20:19:40;25.70;;;6.35;;
24713;SDS011;12820;51.580;5.010;2023-11-19T20:24:42;34.10;;;7.00;;
24713;SDS011;12820;51.580;5.010;2023-11-19T20:29:45;28.42;;;6.28;;
24713;SDS011;12820;51.580;5.010;2023-11-19T20:34:48;30.33;;;6.20;;
24713;SDS011;12820;51.580;5.010;2023-11-19T20:39:50;24.52;;;6.05;;
24713;SDS011;12820;51.580;5.010;2023-11-19T20:44:52;22.83;;;5.55;;
24713;SDS011;12820;51.580;5.010;2023-11-19T20:49:55;30.30;;;7.22;;
24713;SDS011;12820;51.580;5.010;2023-11-19T20:54:57;24.73;;;5.60;;
24713;SDS011;12820;51.580;5.010;2023-11-19T20:59:59;27.52;;;5.40;;
24713;SDS011;12820;51.580;5.010;2023-11-19T21:05:02;27.48;;;5.95;;
24713;SDS011;12820;51.580;5.010;2023-11-19T21:10:04;24.33;;;5.20;;
24713;SDS011;12820;51.580;5.010;2023-11-19T21:15:07;23.83;;;4.88;;
24713;SDS011;12820;51.580;5.010;2023-11-19T21:20:09;30.17;;;4.78;;
24713;SDS011;12820;51.580;5.010;2023-11-19T21:25:12;41.72;;;6.43;;
24713;SDS011;12820;51.580;5.010;2023-11-19T21:30:14;28.50;;;5.65;;
24713;SDS011;12820;51.580;5.010;2023-11-19T21:35:16;34.97;;;5.72;;
24713;SDS011;12820;51.580;5.010;2023-11-19T21:40:18;35.22;;;6.03;;
24713;SDS011;12820;51.580;5.010;2023-11-19T21:45:21;28.58;;;5.22;;
24713;SDS011;12820;51.580;5.010;2023-11-19T21:50:23;30.73;;;5.78;;
24713;SDS011;12820;51.580;5.010;2023-11-19T21:55:25;25.92;;;4.88;;
24713;SDS011;12820;51.580;5.010;2023-11-19T22:00:27;30.58;;;5.03;;
24713;SDS011;12820;51.580;5.010;2023-11-19T22:05:29;28.02;;;4.95;;
24713;SDS011;12820;51.580;5.010;2023-11-19T22:10:32;24.75;;;4.65;;
24713;SDS011;12820;51.580;5.010;2023-11-19T22:15:34;28.83;;;4.68;;
24713;SDS011;12820;51.580;5.010;2023-11-19T22:20:36;34.35;;;4.90;;
24713;SDS011;12820;51.580;5.010;2023-11-19T22:25:39;33.88;;;5.03;;
24713;SDS011;12820;51.580;5.010;2023-11-19T22:30:42;22.63;;;4.32;;
24713;SDS011;12820;51.580;5.010;2023-11-19T22:35:44;28.73;;;4.60;;
24713;SDS011;12820;51.580;5.010;2023-11-19T22:40:47;37.90;;;5.35;;
24713;SDS011;12820;51.580;5.010;2023-11-19T22:45:49;32.83;;;4.40;;
24713;SDS011;12820;51.580;5.010;2023-11-19T22:50:52;22.35;;;4.07;;
24713;SDS011;12820;51.580;5.010;2023-11-19T22:55:54;26.45;;;3.95;;
24713;SDS011;12820;51.580;5.010;2023-11-19T23:00:56;27.95;;;4.05;;
24713;SDS011;12820;51.580;5.010;2023-11-19T23:05:59;27.45;;;3.60;;
24713;SDS011;12820;51.580;5.010;2023-11-19T23:11:01;29.65;;;4.28;;
24713;SDS011;12820;51.580;5.010;2023-11-19T23:16:04;27.45;;;4.15;;
24713;SDS011;12820;51.580;5.010;2023-11-19T23:21:07;26.17;;;3.63;;
24713;SDS011;12820;51.580;5.010;2023-11-19T23:26:09;28.95;;;3.97;;
24713;SDS011;12820;51.580;5.010;2023-11-19T23:31:14;22.83;;;3.85;;
24713;SDS011;12820;51.580;5.010;2023-11-19T23:36:16;24.85;;;4.05;;
24713;SDS011;12820;51.580;5.010;2023-11-19T23:41:19;24.63;;;4.07;;
24713;SDS011;12820;51.580;5.010;2023-11-19T23:46:47;27.77;;;4.30;;
24713;SDS011;12820;51.580;5.010;2023-11-19T23:51:49;28.67;;;3.90;;
24713;SDS011;12820;51.580;5.010;2023-11-19T23:56:51;24.83;;;3.67;;
